Pagrindinis puslapis
METAR-TAF:

METAR-TAF

Oro uostai :

Jasper County Airport (Bell Field)

Jasper, Teksasas, Jungtinės Amerikos Valstijos

platuma: 30-53-08N, ilguma: 094-02-05W, Aukštis: 65 m

Dabartinis oras

Ataskaita buvo paskelbta 32 minutes, ne 06:15 UTC
Ramus vėjas
Temperatūra 21°C
Drėgmė 94%
Slėgis 1013 hPa
Matomumas: 16.1 km
Giedras dangus

METAR: KJAS 270615Z AUTO 00000KT 10SM CLR 21/20 A2992 RMK AO2 T02050201

Laikas: 01:47 (06:47 UTC)


TAF: trūkstamas

Orai ataskaitas ir orų prognozės (METAR, TAF).

turimą stotys yra geltonos ir raudonos taškus žemėlapyje.

Perkelti pele per norėdami pamatyti stoties vardą.

Tada spustelėkite, norėdami matyti oro stebėjimo ir prognozės.

Norėdami pakeisti žemėlapį: spustelėkite ant žalios mygtukų su juodo kryžiaus žemyn,; žalią mygtuką su brūkšneliu, jei norite nutolinti; arba žalių rodyklių gretimoms žemėlapius.


METAR-TAF: